sensor_id;sensor_type;location;lat;lon;timestamp;temperature;humidity
15815;DHT22;8008;50.024;8.172;2023-07-13T03:02:41;19.20;72.90
15815;DHT22;8008;50.024;8.172;2023-07-13T03:05:10;19.00;72.70
15815;DHT22;8008;50.024;8.172;2023-07-13T03:07:40;18.90;73.70
15815;DHT22;8008;50.024;8.172;2023-07-13T03:10:09;18.70;74.00
15815;DHT22;8008;50.024;8.172;2023-07-13T03:12:44;18.70;74.30
15815;DHT22;8008;50.024;8.172;2023-07-13T03:17:58;18.50;75.40
15815;DHT22;8008;50.024;8.172;2023-07-13T03:20:26;18.50;75.90
15815;DHT22;8008;50.024;8.172;2023-07-13T03:22:54;18.50;76.00
15815;DHT22;8008;50.024;8.172;2023-07-13T03:25:22;18.50;75.90
15815;DHT22;8008;50.024;8.172;2023-07-13T03:27:50;18.40;75.50
15815;DHT22;8008;50.024;8.172;2023-07-13T03:30:18;18.40;75.50
15815;DHT22;8008;50.024;8.172;2023-07-13T03:32:46;18.50;75.80
15815;DHT22;8008;50.024;8.172;2023-07-13T03:35:16;18.40;75.80
15815;DHT22;8008;50.024;8.172;2023-07-13T03:37:44;18.40;76.20
15815;DHT22;8008;50.024;8.172;2023-07-13T03:40:18;18.30;76.70
15815;DHT22;8008;50.024;8.172;2023-07-13T03:42:46;18.30;76.70
15815;DHT22;8008;50.024;8.172;2023-07-13T03:45:16;18.30;77.10
15815;DHT22;8008;50.024;8.172;2023-07-13T03:47:46;18.30;77.20
15815;DHT22;8008;50.024;8.172;2023-07-13T03:50:18;18.30;77.00
15815;DHT22;8008;50.024;8.172;2023-07-13T03:52:46;18.10;78.40
15815;DHT22;8008;50.024;8.172;2023-07-13T03:55:15;18.00;78.30
15815;DHT22;8008;50.024;8.172;2023-07-13T03:57:45;18.00;78.60
15815;DHT22;8008;50.024;8.172;2023-07-13T04:00:14;17.90;79.40
15815;DHT22;8008;50.024;8.172;2023-07-13T04:02:42;17.90;80.00
15815;DHT22;8008;50.024;8.172;2023-07-13T04:05:10;17.90;80.40
15815;DHT22;8008;50.024;8.172;2023-07-13T04:07:39;17.80;80.20
15815;DHT22;8008;50.024;8.172;2023-07-13T04:10:08;17.80;80.50
15815;DHT22;8008;50.024;8.172;2023-07-13T04:12:36;18.00;81.50
15815;DHT22;8008;50.024;8.172;2023-07-13T04:15:05;18.10;81.80
15815;DHT22;8008;50.024;8.172;2023-07-13T04:17:33;18.10;81.00
15815;DHT22;8008;50.024;8.172;2023-07-13T04:20:01;18.20;81.20
15815;DHT22;8008;50.024;8.172;2023-07-13T04:22:29;18.20;81.10
15815;DHT22;8008;50.024;8.172;2023-07-13T04:24:58;18.10;80.50
15815;DHT22;8008;50.024;8.172;2023-07-13T04:27:26;18.10;81.20
15815;DHT22;8008;50.024;8.172;2023-07-13T04:29:55;18.10;81.40
15815;DHT22;8008;50.024;8.172;2023-07-13T04:32:23;18.00;81.20
15815;DHT22;8008;50.024;8.172;2023-07-13T04:34:51;17.90;81.50
15815;DHT22;8008;50.024;8.172;2023-07-13T04:37:22;17.90;81.70
15815;DHT22;8008;50.024;8.172;2023-07-13T04:39:50;17.90;81.50
15815;DHT22;8008;50.024;8.172;2023-07-13T04:42:20;17.90;81.30
15815;DHT22;8008;50.024;8.172;2023-07-13T04:44:48;17.90;80.30
15815;DHT22;8008;50.024;8.172;2023-07-13T04:47:16;17.90;80.50
15815;DHT22;8008;50.024;8.172;2023-07-13T04:49:44;18.00;80.60
15815;DHT22;8008;50.024;8.172;2023-07-13T04:52:12;18.00;80.50
15815;DHT22;8008;50.024;8.172;2023-07-13T04:54:40;18.00;80.20
15815;DHT22;8008;50.024;8.172;2023-07-13T04:57:09;18.10;80.00
15815;DHT22;8008;50.024;8.172;2023-07-13T04:59:38;18.10;79.70
15815;DHT22;8008;50.024;8.172;2023-07-13T05:02:06;18.20;80.00
15815;DHT22;8008;50.024;8.172;2023-07-13T05:04:34;18.30;79.90
15815;DHT22;8008;50.024;8.172;2023-07-13T05:07:02;18.40;79.50
15815;DHT22;8008;50.024;8.172;2023-07-13T05:09:30;18.40;79.50
15815;DHT22;8008;50.024;8.172;2023-07-13T05:11:57;18.50;79.70
15815;DHT22;8008;50.024;8.172;2023-07-13T05:14:25;18.50;79.30
15815;DHT22;8008;50.024;8.172;2023-07-13T05:16:55;18.60;79.80
15815;DHT22;8008;50.024;8.172;2023-07-13T05:19:23;18.70;79.80
15815;DHT22;8008;50.024;8.172;2023-07-13T05:21:52;18.70;79.60
15815;DHT22;8008;50.024;8.172;2023-07-13T05:24:19;18.70;79.80
15815;DHT22;8008;50.024;8.172;2023-07-13T05:26:51;18.80;80.70
15815;DHT22;8008;50.024;8.172;2023-07-13T05:29:20;18.90;81.10
15815;DHT22;8008;50.024;8.172;2023-07-13T05:31:48;18.90;80.90
15815;DHT22;8008;50.024;8.172;2023-07-13T05:34:18;18.80;80.80
15815;DHT22;8008;50.024;8.172;2023-07-13T05:36:46;18.80;82.40
15815;DHT22;8008;50.024;8.172;2023-07-13T05:39:14;18.90;81.10
15815;DHT22;8008;50.024;8.172;2023-07-13T05:41:42;19.00;81.00
15815;DHT22;8008;50.024;8.172;2023-07-13T05:44:10;19.00;79.90
15815;DHT22;8008;50.024;8.172;2023-07-13T05:46:38;19.10;79.40
15815;DHT22;8008;50.024;8.172;2023-07-13T05:49:06;19.20;79.80
15815;DHT22;8008;50.024;8.172;2023-07-13T05:51:35;19.20;79.50
15815;DHT22;8008;50.024;8.172;2023-07-13T05:54:03;19.40;79.90
15815;DHT22;8008;50.024;8.172;2023-07-13T05:56:31;19.50;79.40
15815;DHT22;8008;50.024;8.172;2023-07-13T05:58:59;19.60;79.40
15815;DHT22;8008;50.024;8.172;2023-07-13T06:01:29;19.60;79.10
15815;DHT22;8008;50.024;8.172;2023-07-13T06:03:57;19.70;79.00
15815;DHT22;8008;50.024;8.172;2023-07-13T06:06:25;19.80;78.80
15815;DHT22;8008;50.024;8.172;2023-07-13T06:08:55;19.80;78.10
15815;DHT22;8008;50.024;8.172;2023-07-13T06:11:25;19.70;77.40
15815;DHT22;8008;50.024;8.172;2023-07-13T06:13:54;19.60;77.00
15815;DHT22;8008;50.024;8.172;2023-07-13T06:16:22;19.60;77.60
15815;DHT22;8008;50.024;8.172;2023-07-13T06:18:50;19.60;77.10
15815;DHT22;8008;50.024;8.172;2023-07-13T06:21:20;19.60;77.20
15815;DHT22;8008;50.024;8.172;2023-07-13T06:23:49;19.70;77.40
15815;DHT22;8008;50.024;8.172;2023-07-13T06:26:20;19.80;76.90
15815;DHT22;8008;50.024;8.172;2023-07-13T06:28:48;19.90;76.60
15815;DHT22;8008;50.024;8.172;2023-07-13T06:31:16;20.10;76.40
15815;DHT22;8008;50.024;8.172;2023-07-13T06:33:44;20.20;75.80
15815;DHT22;8008;50.024;8.172;2023-07-13T06:36:12;20.20;75.40
15815;DHT22;8008;50.024;8.172;2023-07-13T06:38:40;20.30;75.40
15815;DHT22;8008;50.024;8.172;2023-07-13T06:41:08;20.30;75.30
15815;DHT22;8008;50.024;8.172;2023-07-13T06:43:38;20.30;75.30
15815;DHT22;8008;50.024;8.172;2023-07-13T06:46:06;20.40;75.30
15815;DHT22;8008;50.024;8.172;2023-07-13T06:48:35;20.40;75.50
15815;DHT22;8008;50.024;8.172;2023-07-13T06:51:03;20.40;75.20
15815;DHT22;8008;50.024;8.172;2023-07-13T06:53:31;20.40;75.50
15815;DHT22;8008;50.024;8.172;2023-07-13T06:55:59;20.40;76.20
15815;DHT22;8008;50.024;8.172;2023-07-13T06:58:27;20.40;76.00
15815;DHT22;8008;50.024;8.172;2023-07-13T07:00:56;20.50;75.00
15815;DHT22;8008;50.024;8.172;2023-07-13T07:03:24;20.70;74.60
15815;DHT22;8008;50.024;8.172;2023-07-13T07:05:52;20.90;74.10
15815;DHT22;8008;50.024;8.172;2023-07-13T07:08:20;20.90;72.40
15815;DHT22;8008;50.024;8.172;2023-07-13T07:10:48;21.00;71.60
15815;DHT22;8008;50.024;8.172;2023-07-13T07:13:20;21.00;71.00
15815;DHT22;8008;50.024;8.172;2023-07-13T07:15:50;21.00;71.20
15815;DHT22;8008;50.024;8.172;2023-07-13T07:18:19;21.10;70.90
15815;DHT22;8008;50.024;8.172;2023-07-13T07:20:48;21.30;71.80
15815;DHT22;8008;50.024;8.172;2023-07-13T07:23:16;21.30;69.80
15815;DHT22;8008;50.024;8.172;2023-07-13T07:25:45;21.40;69.70
15815;DHT22;8008;50.024;8.172;2023-07-13T07:28:15;21.50;70.10
15815;DHT22;8008;50.024;8.172;2023-07-13T07:30:48;21.60;69.60
15815;DHT22;8008;50.024;8.172;2023-07-13T07:33:21;21.60;70.10
15815;DHT22;8008;50.024;8.172;2023-07-13T07:35:49;21.70;69.80
15815;DHT22;8008;50.024;8.172;2023-07-13T07:38:20;21.80;70.00
15815;DHT22;8008;50.024;8.172;2023-07-13T07:40:51;21.80;69.50
15815;DHT22;8008;50.024;8.172;2023-07-13T07:43:22;21.90;70.10
15815;DHT22;8008;50.024;8.172;2023-07-13T07:45:50;22.00;67.80
15815;DHT22;8008;50.024;8.172;2023-07-13T07:48:18;21.80;66.70
15815;DHT22;8008;50.024;8.172;2023-07-13T07:50:49;21.70;67.40
15815;DHT22;8008;50.024;8.172;2023-07-13T07:53:16;21.70;66.70
15815;DHT22;8008;50.024;8.172;2023-07-13T07:55:44;21.80;66.60
15815;DHT22;8008;50.024;8.172;2023-07-13T07:58:17;21.80;66.20
15815;DHT22;8008;50.024;8.172;2023-07-13T08:01:05;21.90;66.10
15815;DHT22;8008;50.024;8.172;2023-07-13T08:03:36;22.00;64.40
15815;DHT22;8008;50.024;8.172;2023-07-13T08:06:08;22.00;64.10
15815;DHT22;8008;50.024;8.172;2023-07-13T08:08:56;22.00;64.10
15815;DHT22;8008;50.024;8.172;2023-07-13T08:11:24;22.00;64.60
15815;DHT22;8008;50.024;8.172;2023-07-13T08:13:55;22.10;65.00
15815;DHT22;8008;50.024;8.172;2023-07-13T08:16:23;21.90;63.20
15815;DHT22;8008;50.024;8.172;2023-07-13T08:18:52;21.90;63.10
15815;DHT22;8008;50.024;8.172;2023-07-13T08:21:21;22.00;63.40
15815;DHT22;8008;50.024;8.172;2023-07-13T08:23:49;22.10;64.20
15815;DHT22;8008;50.024;8.172;2023-07-13T08:26:17;22.30;64.00
15815;DHT22;8008;50.024;8.172;2023-07-13T08:28:45;22.40;64.40
15815;DHT22;8008;50.024;8.172;2023-07-13T08:31:13;22.40;63.30
15815;DHT22;8008;50.024;8.172;2023-07-13T08:33:42;22.40;63.00
15815;DHT22;8008;50.024;8.172;2023-07-13T08:36:10;22.40;63.40
15815;DHT22;8008;50.024;8.172;2023-07-13T08:38:39;22.50;63.20
15815;DHT22;8008;50.024;8.172;2023-07-13T08:41:12;22.50;62.90
15815;DHT22;8008;50.024;8.172;2023-07-13T08:43:41;22.50;63.40
15815;DHT22;8008;50.024;8.172;2023-07-13T08:46:14;22.60;62.70
15815;DHT22;8008;50.024;8.172;2023-07-13T08:48:46;22.60;63.30
15815;DHT22;8008;50.024;8.172;2023-07-13T08:51:26;22.60;62.40
15815;DHT22;8008;50.024;8.172;2023-07-13T08:54:00;22.70;62.60
15815;DHT22;8008;50.024;8.172;2023-07-13T08:56:31;22.90;63.20
15815;DHT22;8008;50.024;8.172;2023-07-13T08:59:02;22.90;60.10
15815;DHT22;8008;50.024;8.172;2023-07-13T09:01:45;22.90;60.10
15815;DHT22;8008;50.024;8.172;2023-07-13T09:04:18;22.90;60.90
15815;DHT22;8008;50.024;8.172;2023-07-13T09:06:55;22.90;61.60
15815;DHT22;8008;50.024;8.172;2023-07-13T09:09:35;23.00;61.00
15815;DHT22;8008;50.024;8.172;2023-07-13T09:12:14;23.10;61.60
15815;DHT22;8008;50.024;8.172;2023-07-13T09:14:47;23.30;61.20
15815;DHT22;8008;50.024;8.172;2023-07-13T09:17:18;23.30;59.80
15815;DHT22;8008;50.024;8.172;2023-07-13T09:19:50;23.30;60.00
15815;DHT22;8008;50.024;8.172;2023-07-13T09:22:22;23.10;60.10
15815;DHT22;8008;50.024;8.172;2023-07-13T09:24:57;23.10;60.80
15815;DHT22;8008;50.024;8.172;2023-07-13T09:27:31;23.30;60.60
15815;DHT22;8008;50.024;8.172;2023-07-13T09:30:11;23.40;60.40
15815;DHT22;8008;50.024;8.172;2023-07-13T09:32:48;23.30;59.80
15815;DHT22;8008;50.024;8.172;2023-07-13T09:35:20;23.30;60.30
15815;DHT22;8008;50.024;8.172;2023-07-13T09:37:49;23.30;60.90
15815;DHT22;8008;50.024;8.172;2023-07-13T09:40:24;23.50;60.10
15815;DHT22;8008;50.024;8.172;2023-07-13T09:42:53;23.60;59.50
15815;DHT22;8008;50.024;8.172;2023-07-13T09:45:27;23.60;59.20
15815;DHT22;8008;50.024;8.172;2023-07-13T09:48:00;23.60;60.60
15815;DHT22;8008;50.024;8.172;2023-07-13T09:50:31;23.70;59.90
15815;DHT22;8008;50.024;8.172;2023-07-13T09:53:01;23.80;59.70
15815;DHT22;8008;50.024;8.172;2023-07-13T09:55:32;23.60;59.50
15815;DHT22;8008;50.024;8.172;2023-07-13T09:58:09;23.70;60.30
15815;DHT22;8008;50.024;8.172;2023-07-13T10:00:38;24.00;60.10
15815;DHT22;8008;50.024;8.172;2023-07-13T10:03:16;24.10;59.40
15815;DHT22;8008;50.024;8.172;2023-07-13T10:05:46;24.10;60.10
15815;DHT22;8008;50.024;8.172;2023-07-13T10:08:19;24.20;59.30
15815;DHT22;8008;50.024;8.172;2023-07-13T10:10:57;24.20;58.40
15815;DHT22;8008;50.024;8.172;2023-07-13T10:13:43;24.10;58.30
15815;DHT22;8008;50.024;8.172;2023-07-13T10:16:12;24.10;59.10
15815;DHT22;8008;50.024;8.172;2023-07-13T10:18:44;24.30;58.70
15815;DHT22;8008;50.024;8.172;2023-07-13T10:21:16;24.50;58.00
15815;DHT22;8008;50.024;8.172;2023-07-13T10:23:51;24.60;56.40
15815;DHT22;8008;50.024;8.172;2023-07-13T10:26:25;24.80;56.50
15815;DHT22;8008;50.024;8.172;2023-07-13T10:28:56;24.80;55.90
15815;DHT22;8008;50.024;8.172;2023-07-13T10:31:25;24.90;55.70
15815;DHT22;8008;50.024;8.172;2023-07-13T10:33:53;25.10;55.90
15815;DHT22;8008;50.024;8.172;2023-07-13T10:36:31;25.30;55.10
15815;DHT22;8008;50.024;8.172;2023-07-13T10:39:03;25.60;55.70
15815;DHT22;8008;50.024;8.172;2023-07-13T10:41:36;25.60;55.10
15815;DHT22;8008;50.024;8.172;2023-07-13T10:44:15;25.40;55.20
15815;DHT22;8008;50.024;8.172;2023-07-13T10:46:45;25.70;54.90
15815;DHT22;8008;50.024;8.172;2023-07-13T10:49:14;26.10;55.00
15815;DHT22;8008;50.024;8.172;2023-07-13T10:51:42;26.50;55.10
15815;DHT22;8008;50.024;8.172;2023-07-13T10:54:14;26.70;54.60
15815;DHT22;8008;50.024;8.172;2023-07-13T10:56:50;26.70;54.10
15815;DHT22;8008;50.024;8.172;2023-07-13T10:59:24;26.30;54.30
15815;DHT22;8008;50.024;8.172;2023-07-13T11:01:58;25.90;54.40
15815;DHT22;8008;50.024;8.172;2023-07-13T11:04:27;25.70;54.90
15815;DHT22;8008;50.024;8.172;2023-07-13T11:06:59;25.70;54.70
15815;DHT22;8008;50.024;8.172;2023-07-13T11:09:33;25.90;54.60
15815;DHT22;8008;50.024;8.172;2023-07-13T11:12:09;26.20;54.20
15815;DHT22;8008;50.024;8.172;2023-07-13T11:15:06;26.70;54.70
15815;DHT22;8008;50.024;8.172;2023-07-13T11:17:48;27.00;53.70
15815;DHT22;8008;50.024;8.172;2023-07-13T11:20:32;26.60;53.80
15815;DHT22;8008;50.024;8.172;2023-07-13T11:26:03;27.10;54.20
15815;DHT22;8008;50.024;8.172;2023-07-13T11:28:33;27.70;53.80
15815;DHT22;8008;50.024;8.172;2023-07-13T11:31:03;28.00;53.30
15815;DHT22;8008;50.024;8.172;2023-07-13T11:33:59;28.30;52.20
15815;DHT22;8008;50.024;8.172;2023-07-13T11:36:31;28.30;52.40
15815;DHT22;8008;50.024;8.172;2023-07-13T11:39:05;28.60;51.70
15815;DHT22;8008;50.024;8.172;2023-07-13T11:41:45;28.90;51.40
15815;DHT22;8008;50.024;8.172;2023-07-13T11:44:19;29.30;51.70
15815;DHT22;8008;50.024;8.172;2023-07-13T11:46:48;29.20;50.70
15815;DHT22;8008;50.024;8.172;2023-07-13T11:49:21;28.50;51.30
15815;DHT22;8008;50.024;8.172;2023-07-13T11:51:51;28.00;51.80
15815;DHT22;8008;50.024;8.172;2023-07-13T11:54:26;27.70;51.60
15815;DHT22;8008;50.024;8.172;2023-07-13T11:56:58;27.50;52.20
15815;DHT22;8008;50.024;8.172;2023-07-13T11:59:30;27.40;52.40
15815;DHT22;8008;50.024;8.172;2023-07-13T12:02:00;27.40;52.50
15815;DHT22;8008;50.024;8.172;2023-07-13T12:04:32;27.50;52.70
15815;DHT22;8008;50.024;8.172;2023-07-13T12:07:04;27.80;53.20
15815;DHT22;8008;50.024;8.172;2023-07-13T12:09:34;28.40;52.90
15815;DHT22;8008;50.024;8.172;2023-07-13T12:12:08;28.70;52.70
15815;DHT22;8008;50.024;8.172;2023-07-13T12:14:39;29.40;52.20
15815;DHT22;8008;50.024;8.172;2023-07-13T12:17:10;28.40;50.60
15815;DHT22;8008;50.024;8.172;2023-07-13T12:19:41;27.20;51.80
15815;DHT22;8008;50.024;8.172;2023-07-13T12:22:12;26.90;52.70
15815;DHT22;8008;50.024;8.172;2023-07-13T12:24:40;26.60;52.70
15815;DHT22;8008;50.024;8.172;2023-07-13T12:27:19;26.50;52.20
15815;DHT22;8008;50.024;8.172;2023-07-13T12:29:51;26.70;53.20
15815;DHT22;8008;50.024;8.172;2023-07-13T12:32:21;26.70;53.10
15815;DHT22;8008;50.024;8.172;2023-07-13T12:34:52;26.60;52.80
15815;DHT22;8008;50.024;8.172;2023-07-13T12:37:20;26.60;53.00
15815;DHT22;8008;50.024;8.172;2023-07-13T12:39:49;26.20;53.10
15815;DHT22;8008;50.024;8.172;2023-07-13T12:42:20;26.10;52.70
15815;DHT22;8008;50.024;8.172;2023-07-13T12:44:53;26.10;54.10
15815;DHT22;8008;50.024;8.172;2023-07-13T12:47:21;26.20;54.00
15815;DHT22;8008;50.024;8.172;2023-07-13T12:49:55;26.20;53.30
15815;DHT22;8008;50.024;8.172;2023-07-13T12:52:27;25.90;53.50
15815;DHT22;8008;50.024;8.172;2023-07-13T12:54:58;26.00;54.20
15815;DHT22;8008;50.024;8.172;2023-07-13T12:57:30;26.30;55.10
15815;DHT22;8008;50.024;8.172;2023-07-13T12:59:59;26.50;54.90
15815;DHT22;8008;50.024;8.172;2023-07-13T13:02:29;26.30;54.20
15815;DHT22;8008;50.024;8.172;2023-07-13T13:04:58;26.20;54.50
15815;DHT22;8008;50.024;8.172;2023-07-13T13:07:26;26.10;53.10
15815;DHT22;8008;50.024;8.172;2023-07-13T13:09:56;26.10;53.30
15815;DHT22;8008;50.024;8.172;2023-07-13T13:12:24;26.10;53.70
15815;DHT22;8008;50.024;8.172;2023-07-13T13:14:53;26.10;53.60
15815;DHT22;8008;50.024;8.172;2023-07-13T13:17:27;26.20;54.00
15815;DHT22;8008;50.024;8.172;2023-07-13T13:19:55;26.00;53.40
15815;DHT22;8008;50.024;8.172;2023-07-13T13:22:23;25.90;53.90
15815;DHT22;8008;50.024;8.172;2023-07-13T13:24:51;26.20;53.40
15815;DHT22;8008;50.024;8.172;2023-07-13T13:27:21;26.70;52.70
15815;DHT22;8008;50.024;8.172;2023-07-13T13:29:50;26.70;52.20
15815;DHT22;8008;50.024;8.172;2023-07-13T13:32:19;26.30;52.40
15815;DHT22;8008;50.024;8.172;2023-07-13T13:34:50;26.30;53.30
15815;DHT22;8008;50.024;8.172;2023-07-13T13:37:20;26.10;52.90
15815;DHT22;8008;50.024;8.172;2023-07-13T13:39:49;26.00;53.30
15815;DHT22;8008;50.024;8.172;2023-07-13T13:42:33;25.80;52.80
15815;DHT22;8008;50.024;8.172;2023-07-13T13:45:01;26.10;54.00
15815;DHT22;8008;50.024;8.172;2023-07-13T13:47:32;26.10;54.00
15815;DHT22;8008;50.024;8.172;2023-07-13T13:50:11;26.10;53.50
15815;DHT22;8008;50.024;8.172;2023-07-13T13:52:40;26.30;53.60
15815;DHT22;8008;50.024;8.172;2023-07-13T13:55:13;26.50;54.20
15815;DHT22;8008;50.024;8.172;2023-07-13T13:57:41;26.70;54.20
15815;DHT22;8008;50.024;8.172;2023-07-13T14:00:10;26.90;53.80
15815;DHT22;8008;50.024;8.172;2023-07-13T14:02:42;26.80;53.80
15815;DHT22;8008;50.024;8.172;2023-07-13T14:05:19;26.50;53.80
15815;DHT22;8008;50.024;8.172;2023-07-13T14:07:48;26.30;54.10
15815;DHT22;8008;50.024;8.172;2023-07-13T14:10:17;26.20;53.90
15815;DHT22;8008;50.024;8.172;2023-07-13T14:12:48;26.00;53.90
15815;DHT22;8008;50.024;8.172;2023-07-13T14:15:20;25.90;54.80
15815;DHT22;8008;50.024;8.172;2023-07-13T14:17:48;25.90;55.10
15815;DHT22;8008;50.024;8.172;2023-07-13T14:20:20;25.80;54.20
15815;DHT22;8008;50.024;8.172;2023-07-13T14:22:48;25.70;54.80
15815;DHT22;8008;50.024;8.172;2023-07-13T14:25:18;25.60;54.80
15815;DHT22;8008;50.024;8.172;2023-07-13T14:27:49;25.60;55.30
15815;DHT22;8008;50.024;8.172;2023-07-13T14:30:20;25.50;54.40
15815;DHT22;8008;50.024;8.172;2023-07-13T14:32:49;25.50;54.90
15815;DHT22;8008;50.024;8.172;2023-07-13T14:35:20;25.60;54.60
15815;DHT22;8008;50.024;8.172;2023-07-13T14:37:50;25.60;54.20
15815;DHT22;8008;50.024;8.172;2023-07-13T14:40:24;25.60;54.30
15815;DHT22;8008;50.024;8.172;2023-07-13T14:42:52;25.80;55.10
15815;DHT22;8008;50.024;8.172;2023-07-13T14:45:21;26.00;54.60
15815;DHT22;8008;50.024;8.172;2023-07-13T14:47:49;26.40;54.50
15815;DHT22;8008;50.024;8.172;2023-07-13T14:50:21;26.70;53.40
15815;DHT22;8008;50.024;8.172;2023-07-13T14:52:49;26.90;53.60
15815;DHT22;8008;50.024;8.172;2023-07-13T14:55:18;26.50;53.40
15815;DHT22;8008;50.024;8.172;2023-07-13T14:57:46;26.30;54.00
15815;DHT22;8008;50.024;8.172;2023-07-13T15:00:16;26.10;54.30
15815;DHT22;8008;50.024;8.172;2023-07-13T15:02:47;26.00;54.00
15815;DHT22;8008;50.024;8.172;2023-07-13T15:05:19;25.90;54.00
15815;DHT22;8008;50.024;8.172;2023-07-13T15:07:49;25.80;54.50
15815;DHT22;8008;50.024;8.172;2023-07-13T15:10:20;25.60;53.80
15815;DHT22;8008;50.024;8.172;2023-07-13T15:12:50;25.70;53.70
15815;DHT22;8008;50.024;8.172;2023-07-13T15:15:19;26.30;54.40
15815;DHT22;8008;50.024;8.172;2023-07-13T15:17:47;27.10;52.90
15815;DHT22;8008;50.024;8.172;2023-07-13T15:20:21;28.40;52.20
15815;DHT22;8008;50.024;8.172;2023-07-13T15:22:51;29.40;51.20
15815;DHT22;8008;50.024;8.172;2023-07-13T15:25:21;30.30;50.90
15815;DHT22;8008;50.024;8.172;2023-07-13T15:27:51;30.80;49.70
15815;DHT22;8008;50.024;8.172;2023-07-13T15:30:19;31.90;50.10
15815;DHT22;8008;50.024;8.172;2023-07-13T15:32:48;32.40;48.30
15815;DHT22;8008;50.024;8.172;2023-07-13T15:35:18;32.40;48.20
15815;DHT22;8008;50.024;8.172;2023-07-13T15:37:48;32.40;47.70
15815;DHT22;8008;50.024;8.172;2023-07-13T15:40:17;31.40;48.10
15815;DHT22;8008;50.024;8.172;2023-07-13T15:42:45;31.00;48.70
15815;DHT22;8008;50.024;8.172;2023-07-13T15:45:19;30.90;49.20
15815;DHT22;8008;50.024;8.172;2023-07-13T15:47:48;31.00;49.10
15815;DHT22;8008;50.024;8.172;2023-07-13T15:50:18;30.80;49.20
15815;DHT22;8008;50.024;8.172;2023-07-13T15:52:50;31.10;48.80
15815;DHT22;8008;50.024;8.172;2023-07-13T15:55:20;29.90;48.50
15815;DHT22;8008;50.024;8.172;2023-07-13T15:57:50;29.10;48.80
15815;DHT22;8008;50.024;8.172;2023-07-13T16:00:21;27.90;49.40
15815;DHT22;8008;50.024;8.172;2023-07-13T16:02:50;27.60;50.40
15815;DHT22;8008;50.024;8.172;2023-07-13T16:05:20;27.10;50.30
15815;DHT22;8008;50.024;8.172;2023-07-13T16:07:51;26.80;50.70
15815;DHT22;8008;50.024;8.172;2023-07-13T16:10:22;26.50;51.50
15815;DHT22;8008;50.024;8.172;2023-07-13T16:12:52;26.40;52.00
15815;DHT22;8008;50.024;8.172;2023-07-13T16:15:22;26.20;51.50
15815;DHT22;8008;50.024;8.172;2023-07-13T16:17:50;26.10;51.60
15815;DHT22;8008;50.024;8.172;2023-07-13T16:20:18;26.30;52.00
15815;DHT22;8008;50.024;8.172;2023-07-13T16:22:51;26.10;51.50
15815;DHT22;8008;50.024;8.172;2023-07-13T16:25:21;26.20;51.60
15815;DHT22;8008;50.024;8.172;2023-07-13T16:27:51;26.50;52.10
15815;DHT22;8008;50.024;8.172;2023-07-13T16:30:21;26.60;51.70
15815;DHT22;8008;50.024;8.172;2023-07-13T16:32:51;26.60;51.50
15815;DHT22;8008;50.024;8.172;2023-07-13T16:35:19;26.60;51.60
15815;DHT22;8008;50.024;8.172;2023-07-13T16:37:48;26.50;51.60
15815;DHT22;8008;50.024;8.172;2023-07-13T16:40:31;26.50;51.20
15815;DHT22;8008;50.024;8.172;2023-07-13T16:43:00;26.50;51.70
15815;DHT22;8008;50.024;8.172;2023-07-13T16:45:32;26.60;51.10
15815;DHT22;8008;50.024;8.172;2023-07-13T16:48:02;26.70;51.80
15815;DHT22;8008;50.024;8.172;2023-07-13T16:50:38;26.40;52.00
15815;DHT22;8008;50.024;8.172;2023-07-13T16:53:14;26.50;52.10
15815;DHT22;8008;50.024;8.172;2023-07-13T16:55:45;26.60;51.70
15815;DHT22;8008;50.024;8.172;2023-07-13T16:58:13;26.60;53.10
15815;DHT22;8008;50.024;8.172;2023-07-13T17:00:42;26.40;51.70
15815;DHT22;8008;50.024;8.172;2023-07-13T17:03:10;26.40;51.90
15815;DHT22;8008;50.024;8.172;2023-07-13T17:05:41;26.40;52.00
15815;DHT22;8008;50.024;8.172;2023-07-13T17:08:13;26.20;51.50
15815;DHT22;8008;50.024;8.172;2023-07-13T17:10:42;26.10;52.40
15815;DHT22;8008;50.024;8.172;2023-07-13T17:13:14;26.20;53.00
15815;DHT22;8008;50.024;8.172;2023-07-13T17:15:44;26.30;52.40
15815;DHT22;8008;50.024;8.172;2023-07-13T17:18:13;26.30;52.40
15815;DHT22;8008;50.024;8.172;2023-07-13T17:20:43;26.20;52.50
15815;DHT22;8008;50.024;8.172;2023-07-13T17:23:15;26.20;52.20
15815;DHT22;8008;50.024;8.172;2023-07-13T17:25:44;26.20;52.40
15815;DHT22;8008;50.024;8.172;2023-07-13T17:28:14;26.40;52.40
15815;DHT22;8008;50.024;8.172;2023-07-13T17:30:43;26.20;52.20
15815;DHT22;8008;50.024;8.172;2023-07-13T17:33:25;26.00;52.40
15815;DHT22;8008;50.024;8.172;2023-07-13T17:35:55;26.20;52.80
15815;DHT22;8008;50.024;8.172;2023-07-13T17:38:30;26.50;52.20
15815;DHT22;8008;50.024;8.172;2023-07-13T17:40:59;26.30;51.90
15815;DHT22;8008;50.024;8.172;2023-07-13T17:43:28;26.00;52.10
15815;DHT22;8008;50.024;8.172;2023-07-13T17:45:58;25.90;52.90
15815;DHT22;8008;50.024;8.172;2023-07-13T17:48:27;25.80;53.20
15815;DHT22;8008;50.024;8.172;2023-07-13T17:50:56;25.80;53.60
15815;DHT22;8008;50.024;8.172;2023-07-13T17:53:27;25.90;53.90
15815;DHT22;8008;50.024;8.172;2023-07-13T17:55:55;25.90;53.50
15815;DHT22;8008;50.024;8.172;2023-07-13T17:58:23;25.90;52.90
15815;DHT22;8008;50.024;8.172;2023-07-13T18:00:54;25.80;53.10
15815;DHT22;8008;50.024;8.172;2023-07-13T18:03:24;25.70;53.50
15815;DHT22;8008;50.024;8.172;2023-07-13T18:06:01;25.60;53.80
15815;DHT22;8008;50.024;8.172;2023-07-13T18:08:30;25.40;54.10
15815;DHT22;8008;50.024;8.172;2023-07-13T18:11:00;25.30;54.00
15815;DHT22;8008;50.024;8.172;2023-07-13T18:13:29;25.20;54.60
15815;DHT22;8008;50.024;8.172;2023-07-13T18:16:13;25.10;54.90
15815;DHT22;8008;50.024;8.172;2023-07-13T18:18:42;25.10;55.70
15815;DHT22;8008;50.024;8.172;2023-07-13T18:21:12;25.20;54.90
15815;DHT22;8008;50.024;8.172;2023-07-13T18:23:43;25.10;55.10
15815;DHT22;8008;50.024;8.172;2023-07-13T18:26:15;25.10;55.10
15815;DHT22;8008;50.024;8.172;2023-07-13T18:28:43;25.10;55.20
15815;DHT22;8008;50.024;8.172;2023-07-13T18:31:17;25.10;55.30
15815;DHT22;8008;50.024;8.172;2023-07-13T18:33:47;25.10;55.40
15815;DHT22;8008;50.024;8.172;2023-07-13T18:36:17;25.10;55.60
15815;DHT22;8008;50.024;8.172;2023-07-13T18:38:45;25.00;56.00
15815;DHT22;8008;50.024;8.172;2023-07-13T18:41:16;25.00;55.80
15815;DHT22;8008;50.024;8.172;2023-07-13T18:43:45;24.90;56.10
15815;DHT22;8008;50.024;8.172;2023-07-13T18:46:20;24.90;56.10
15815;DHT22;8008;50.024;8.172;2023-07-13T18:48:49;24.90;56.30
15815;DHT22;8008;50.024;8.172;2023-07-13T18:51:17;24.90;56.40
15815;DHT22;8008;50.024;8.172;2023-07-13T18:53:45;24.80;56.50
15815;DHT22;8008;50.024;8.172;2023-07-13T18:56:14;24.70;56.60
15815;DHT22;8008;50.024;8.172;2023-07-13T18:58:42;24.60;56.20
15815;DHT22;8008;50.024;8.172;2023-07-13T19:01:18;24.50;56.90
15815;DHT22;8008;50.024;8.172;2023-07-13T19:03:47;24.50;56.60
15815;DHT22;8008;50.024;8.172;2023-07-13T19:06:18;24.40;56.40
15815;DHT22;8008;50.024;8.172;2023-07-13T19:08:48;24.30;56.60
15815;DHT22;8008;50.024;8.172;2023-07-13T19:11:18;24.30;56.50
15815;DHT22;8008;50.024;8.172;2023-07-13T19:13:47;24.30;56.80